Time;durP1;ratioP1;P1;durP2;ratioP2;P2;SDS_P1;SDS_P2;PMS_P1;PMS_P2;Temp;Humidity;BMP_temperature;BMP_pressure;BME280_temperature;BME280_humidity;BME280_pressure;Samples;Min_cycle;Max_cycle;Signal;HPM_P1;HPM_P2
2022/08/14 00:00:42;;;;;;;12.15;11.10;;;;;;;;;;5021519;28;20025;-73
2022/08/14 00:03:07;;;;;;;11.98;10.88;;;;;;;;;;5023138;28;20029;-72
2022/08/14 00:05:33;;;;;;;11.43;10.55;;;;;;;;;;5022868;28;20036;-73
2022/08/14 00:07:58;;;;;;;12.35;11.25;;;;;;;;;;5022183;28;20017;-75
2022/08/14 00:10:23;;;;;;;11.10;10.20;;;;;;;;;;5020652;28;20034;-72
2022/08/14 00:12:50;;;;;;;10.77;9.88;;;;;;;;;;5026085;28;20052;-73
2022/08/14 00:15:18;;;;;;;11.68;10.70;;;;;;;;;;5021891;28;20438;-73
2022/08/14 00:17:44;;;;;;;11.75;10.43;;;;;;;;;;5020232;28;20125;-72
2022/08/14 00:20:09;;;;;;;12.90;11.90;;;;;;;;;;5020686;28;20100;-75
2022/08/14 00:22:34;;;;;;;11.35;10.43;;;;;;;;;;5020278;28;20474;-73
2022/08/14 00:25:00;;;;;;;11.18;10.27;;;;;;;;;;5021645;28;20065;-72
2022/08/14 00:27:25;;;;;;;12.90;11.70;;;;;;;;;;5025248;28;20058;-73
2022/08/14 00:29:51;;;;;;;13.07;11.95;;;;;;;;;;5020397;28;20421;-72
2022/08/14 00:32:16;;;;;;;12.50;11.50;;;;;;;;;;5020303;28;20420;-72
2022/08/14 00:34:41;;;;;;;11.73;10.80;;;;;;;;;;5022814;28;20099;-72
2022/08/14 00:37:07;;;;;;;13.05;11.75;;;;;;;;;;5022285;28;20039;-72
2022/08/14 00:39:32;;;;;;;12.60;11.45;;;;;;;;;;5022359;28;20068;-74
2022/08/14 00:41:57;;;;;;;12.13;10.98;;;;;;;;;;5021395;28;20045;-72
2022/08/14 00:44:23;;;;;;;11.05;10.13;;;;;;;;;;5020584;28;20039;-74
2022/08/14 00:46:48;;;;;;;13.63;12.13;;;;;;;;;;5022581;28;20428;-72
2022/08/14 00:49:14;;;;;;;11.85;10.82;;;;;;;;;;5020898;28;20029;-73
2022/08/14 00:51:40;;;;;;;12.02;10.98;;;;;;;;;;5022158;28;20049;-72
2022/08/14 00:54:06;;;;;;;12.18;11.15;;;;;;;;;;5020532;28;20455;-72
2022/08/14 00:56:32;;;;;;;14.40;12.88;;;;;;;;;;5020930;28;20021;-72
2022/08/14 00:58:58;;;;;;;13.43;12.32;;;;;;;;;;5021177;28;21491;-74
2022/08/14 01:01:24;;;;;;;13.07;11.98;;;;;;;;;;5026357;28;20036;-72
2022/08/14 01:03:51;;;;;;;13.02;11.88;;;;;;;;;;5024807;28;20021;-71
2022/08/14 01:06:16;;;;;;;13.73;12.63;;;;;;;;;;5026737;28;20034;-72
2022/08/14 01:08:43;;;;;;;13.85;12.55;;;;;;;;;;5023762;28;20052;-75
2022/08/14 01:11:09;;;;;;;15.60;14.32;;;;;;;;;;5024125;28;20025;-72
2022/08/14 01:13:39;;;;;;;14.48;13.27;;;;;;;;;;5023494;28;20916;-71
2022/08/14 01:16:04;;;;;;;;;;;;;;;;;;5027632;28;20033;-72
2022/08/14 01:21:15;;;;;;;17.15;15.75;;;;;;;;;;5024427;28;20055;-73
2022/08/14 01:23:42;;;;;;;17.95;16.45;;;;;;;;;;5023428;28;20425;-72
2022/08/14 01:26:08;;;;;;;15.65;14.35;;;;;;;;;;5023127;28;20033;-74
2022/08/14 01:28:36;;;;;;;16.42;14.82;;;;;;;;;;5024439;28;20025;-73
2022/08/14 01:31:04;;;;;;;15.35;14.05;;;;;;;;;;5023186;28;20037;-71
2022/08/14 01:33:30;;;;;;;14.10;13.00;;;;;;;;;;5007138;28;20472;-73
2022/08/14 01:35:57;;;;;;;15.00;13.70;;;;;;;;;;5021929;28;20109;-71
2022/08/14 01:38:30;;;;;;;14.77;13.57;;;;;;;;;;5024702;28;20025;-72
2022/08/14 01:40:55;;;;;;;15.63;14.23;;;;;;;;;;5023096;28;20073;-72
2022/08/14 01:43:21;;;;;;;16.40;15.00;;;;;;;;;;5024220;28;20067;-72
2022/08/14 01:45:50;;;;;;;15.60;14.00;;;;;;;;;;5022450;28;20020;-71
2022/08/14 01:48:16;;;;;;;15.65;14.32;;;;;;;;;;5024746;28;20032;-72
2022/08/14 01:50:42;;;;;;;17.95;16.35;;;;;;;;;;5022732;28;20356;-72
2022/08/14 01:53:08;;;;;;;16.33;14.93;;;;;;;;;;5025097;28;20099;-72
2022/08/14 01:55:34;;;;;;;16.63;15.27;;;;;;;;;;5023844;28;20036;-75
2022/08/14 01:58:00;;;;;;;18.70;17.20;;;;;;;;;;5022339;28;20124;-72
2022/08/14 02:00:25;;;;;;;18.00;16.40;;;;;;;;;;5023157;28;20129;-72
2022/08/14 02:02:50;;;;;;;19.02;17.52;;;;;;;;;;5024868;28;20471;-73
2022/08/14 02:05:16;;;;;;;18.85;17.25;;;;;;;;;;5023801;28;20064;-71
2022/08/14 02:07:43;;;;;;;17.58;16.10;;;;;;;;;;5024260;28;20032;-73
2022/08/14 02:10:10;;;;;;;14.95;13.75;;;;;;;;;;5023151;28;20092;-75
2022/08/14 02:12:35;;;;;;;15.25;14.05;;;;;;;;;;5022786;28;20029;-73
2022/08/14 02:15:01;;;;;;;14.15;12.95;;;;;;;;;;5023470;28;20021;-72
2022/08/14 02:17:27;;;;;;;16.20;12.32;;;;;;;;;;5021746;28;20029;-73
2022/08/14 02:19:52;;;;;;;15.65;14.45;;;;;;;;;;5021675;28;20030;-72
2022/08/14 02:22:18;;;;;;;15.75;14.38;;;;;;;;;;5023824;28;20064;-72
2022/08/14 02:24:43;;;;;;;15.48;14.00;;;;;;;;;;5022240;28;20029;-73
2022/08/14 02:27:12;;;;;;;15.98;14.60;;;;;;;;;;5023852;28;20048;-74
2022/08/14 02:29:39;;;;;;;14.52;13.20;;;;;;;;;;5021786;28;20431;-72
2022/08/14 02:32:04;;;;;;;15.93;14.52;;;;;;;;;;5024460;28;20125;-73
2022/08/14 02:34:31;;;;;;;15.63;14.50;;;;;;;;;;5022123;28;20112;-75
2022/08/14 02:36:58;;;;;;;16.27;14.98;;;;;;;;;;5024042;28;20032;-72
2022/08/14 02:39:24;;;;;;;16.65;15.25;;;;;;;;;;5022728;28;20033;-72
2022/08/14 02:41:51;;;;;;;14.98;13.60;;;;;;;;;;5023475;28;20128;-73
2022/08/14 02:44:21;;;;;;;16.27;14.88;;;;;;;;;;5022744;28;20032;-73
2022/08/14 02:46:47;;;;;;;16.42;15.13;;;;;;;;;;5021529;28;20031;-75
2022/08/14 02:49:13;;;;;;;16.13;14.57;;;;;;;;;;5024389;28;20372;-73
2022/08/14 02:51:38;;;;;;;15.80;14.32;;;;;;;;;;5024421;28;20029;-74
2022/08/14 02:54:05;;;;;;;15.57;14.30;;;;;;;;;;5022292;28;20433;-74
2022/08/14 02:56:31;;;;;;;15.40;13.98;;;;;;;;;;5023096;28;20048;-76
2022/08/14 02:59:00;;;;;;;18.15;16.55;;;;;;;;;;5022901;28;20029;-74
2022/08/14 03:01:26;;;;;;;18.37;16.60;;;;;;;;;;5023935;28;20029;-76
2022/08/14 03:03:52;;;;;;;16.83;15.38;;;;;;;;;;5022559;28;20079;-75
2022/08/14 03:06:19;;;;;;;19.58;17.58;;;;;;;;;;5024797;28;20033;-73
2022/08/14 03:08:44;;;;;;;18.40;16.80;;;;;;;;;;5019868;28;20467;-73
2022/08/14 03:11:10;;;;;;;16.13;14.80;;;;;;;;;;5021093;28;20104;-72
2022/08/14 03:13:38;;;;;;;16.42;15.13;;;;;;;;;;5022731;28;20028;-74
2022/08/14 03:16:09;;;;;;;15.30;14.10;;;;;;;;;;5021770;28;20459;-73
2022/08/14 03:18:36;;;;;;;15.10;13.80;;;;;;;;;;5021367;28;20025;-73
2022/08/14 03:21:03;;;;;;;16.45;15.10;;;;;;;;;;5022936;28;20349;-72
2022/08/14 03:23:32;;;;;;;15.13;13.98;;;;;;;;;;5023054;28;20029;-73
2022/08/14 03:25:58;;;;;;;15.25;14.02;;;;;;;;;;5024051;28;20037;-74
2022/08/14 03:28:28;;;;;;;11.77;10.88;;;;;;;;;;5022511;28;20052;-72
2022/08/14 03:30:53;;;;;;;13.13;11.93;;;;;;;;;;5020882;28;20035;-72
2022/08/14 03:33:19;;;;;;;12.50;11.50;;;;;;;;;;5023006;28;20030;-76
2022/08/14 03:35:44;;;;;;;14.65;12.40;;;;;;;;;;5021870;28;20072;-72
2022/08/14 03:38:11;;;;;;;12.13;11.13;;;;;;;;;;5020165;28;20104;-76
2022/08/14 03:40:39;;;;;;;12.88;11.88;;;;;;;;;;5021397;28;20045;-73
2022/08/14 03:43:06;;;;;;;11.73;10.73;;;;;;;;;;5022079;28;20025;-74
2022/08/14 03:45:34;;;;;;;12.07;11.13;;;;;;;;;;5021741;28;20432;-73
2022/08/14 03:48:02;;;;;;;11.85;10.68;;;;;;;;;;5021803;28;20033;-73
2022/08/14 03:50:28;;;;;;;11.13;10.23;;;;;;;;;;5020831;28;20139;-73
2022/08/14 03:52:53;;;;;;;9.23;8.43;;;;;;;;;;5023060;28;20083;-73
2022/08/14 03:55:19;;;;;;;8.32;7.63;;;;;;;;;;5021276;28;20496;-74
2022/08/14 03:57:44;;;;;;;9.65;8.75;;;;;;;;;;5022062;28;20040;-73
2022/08/14 04:00:12;;;;;;;9.20;8.30;;;;;;;;;;5022321;28;20041;-73
2022/08/14 04:02:39;;;;;;;12.95;11.80;;;;;;;;;;5023929;28;20025;-74
2022/08/14 04:05:05;;;;;;;11.18;10.13;;;;;;;;;;5023211;28;20087;-73
2022/08/14 04:07:32;;;;;;;11.57;10.57;;;;;;;;;;5021918;28;20040;-74
2022/08/14 04:09:57;;;;;;;7.35;6.75;;;;;;;;;;5023431;28;20482;-75
2022/08/14 04:12:22;;;;;;;4.78;4.38;;;;;;;;;;5021986;28;20029;-73
2022/08/14 04:14:48;;;;;;;4.53;4.13;;;;;;;;;;5022341;28;20034;-74
2022/08/14 04:17:13;;;;;;;3.90;3.63;;;;;;;;;;5022695;28;20025;-73
2022/08/14 04:19:39;;;;;;;4.65;2.90;;;;;;;;;;5022535;28;20032;-72
2022/08/14 04:22:05;;;;;;;2.17;1.55;;;;;;;;;;5022475;28;20141;-75
2022/08/14 04:24:31;;;;;;;1.60;1.50;;;;;;;;;;5020696;28;20391;-75
2022/08/14 04:26:56;;;;;;;1.73;1.63;;;;;;;;;;5021347;28;20032;-73
2022/08/14 04:29:21;;;;;;;1.38;1.30;;;;;;;;;;5021121;28;20368;-76
2022/08/14 04:31:49;;;;;;;1.77;1.40;;;;;;;;;;5023358;28;20112;-74
2022/08/14 04:34:15;;;;;;;2.40;2.13;;;;;;;;;;5021087;28;20087;-75
2022/08/14 04:44:52;;;;;;;2.97;2.00;;;;;;;;;;5026508;28;21036;-72
2022/08/14 04:50:05;;;;;;;3.60;1.95;;;;;;;;;;5024619;28;20060;-73
2022/08/14 04:52:30;;;;;;;1.65;1.55;;;;;;;;;;5023942;28;20455;-73
2022/08/14 04:54:56;;;;;;;1.52;1.42;;;;;;;;;;5024210;28;20033;-73
2022/08/14 04:57:22;;;;;;;1.25;1.23;;;;;;;;;;5026965;28;20068;-73
2022/08/14 04:59:47;;;;;;;2.28;1.63;;;;;;;;;;5024280;28;20120;-73
2022/08/14 05:02:13;;;;;;;2.72;1.50;;;;;;;;;;5026407;28;20144;-74
2022/08/14 05:04:39;;;;;;;2.45;1.90;;;;;;;;;;5024826;28;20040;-74
2022/08/14 05:07:04;;;;;;;3.75;1.90;;;;;;;;;;5025504;28;20033;-75
2022/08/14 05:09:30;;;;;;;1.50;1.40;;;;;;;;;;5024516;28;20021;-74
2022/08/14 05:11:55;;;;;;;1.42;1.33;;;;;;;;;;5025116;28;20025;-74
2022/08/14 05:14:22;;;;;;;2.97;1.48;;;;;;;;;;5025583;28;20455;-75
2022/08/14 05:16:47;;;;;;;2.45;1.65;;;;;;;;;;5025376;28;20412;-74
2022/08/14 05:19:13;;;;;;;1.77;1.55;;;;;;;;;;5025849;28;20036;-73
2022/08/14 05:21:41;;;;;;;2.08;1.88;;;;;;;;;;5023529;28;20026;-74
2022/08/14 05:24:07;;;;;;;1.60;1.50;;;;;;;;;;5026248;28;20018;-73
2022/08/14 05:26:32;;;;;;;3.30;2.10;;;;;;;;;;5024383;28;20091;-74
2022/08/14 05:28:58;;;;;;;2.25;2.05;;;;;;;;;;5023828;28;20040;-75
2022/08/14 05:31:23;;;;;;;2.63;2.13;;;;;;;;;;5024190;28;20044;-73
2022/08/14 05:33:48;;;;;;;2.38;2.00;;;;;;;;;;5023925;28;20364;-73
2022/08/14 05:36:14;;;;;;;3.08;2.30;;;;;;;;;;5025667;28;21028;-74
2022/08/14 05:38:43;;;;;;;2.42;2.22;;;;;;;;;;5026278;28;20029;-73
2022/08/14 05:41:08;;;;;;;;;;;;;;;;;;5024985;28;20516;-74
2022/08/14 05:43:34;;;;;;;3.17;2.97;;;;;;;;;;5026297;28;19952;-74
2022/08/14 05:46:00;;;;;;;3.22;3.00;;;;;;;;;;5025574;28;20026;-75
2022/08/14 05:48:26;;;;;;;3.50;2.33;;;;;;;;;;5023392;28;20061;-74
2022/08/14 05:50:53;;;;;;;2.58;2.33;;;;;;;;;;5027592;28;20068;-72
2022/08/14 05:53:19;;;;;;;2.83;2.45;;;;;;;;;;5025817;28;20041;-72
2022/08/14 05:55:44;;;;;;;3.35;2.28;;;;;;;;;;5026559;28;20418;-73
2022/08/14 05:58:10;;;;;;;2.38;2.17;;;;;;;;;;5021755;28;20021;-73
2022/08/14 06:00:38;;;;;;;3.35;2.20;;;;;;;;;;5009895;28;20126;-73
2022/08/14 06:03:04;;;;;;;4.55;1.92;;;;;;;;;;5017042;28;20111;-74
2022/08/14 06:05:30;;;;;;;3.25;2.15;;;;;;;;;;5021019;28;20432;-73
2022/08/14 06:07:57;;;;;;;2.50;2.28;;;;;;;;;;5022665;28;20033;-73
2022/08/14 06:10:22;;;;;;;3.70;2.88;;;;;;;;;;5023385;28;20026;-74
2022/08/14 06:12:47;;;;;;;2.58;2.25;;;;;;;;;;5024572;28;20033;-72
2022/08/14 06:15:13;;;;;;;2.97;2.30;;;;;;;;;;5024294;28;20029;-75
2022/08/14 06:17:42;;;;;;;2.10;2.00;;;;;;;;;;5023995;28;20025;-73
2022/08/14 06:20:08;;;;;;;2.42;2.22;;;;;;;;;;5022688;28;20391;-72
2022/08/14 06:22:33;;;;;;;3.75;2.33;;;;;;;;;;5022548;28;20477;-71
2022/08/14 06:24:58;;;;;;;2.50;2.30;;;;;;;;;;5024750;28;20348;-74
2022/08/14 06:27:24;;;;;;;2.55;2.10;;;;;;;;;;5023546;28;20120;-73
2022/08/14 06:29:49;;;;;;;3.03;2.78;;;;;;;;;;5023255;28;20118;-71
2022/08/14 06:32:15;;;;;;;3.33;2.08;;;;;;;;;;5023508;28;20116;-72
2022/08/14 06:34:40;;;;;;;3.13;2.30;;;;;;;;;;5024221;28;20103;-73
2022/08/14 06:37:05;;;;;;;3.17;2.50;;;;;;;;;;5025084;28;20052;-72
2022/08/14 06:39:32;;;;;;;2.88;2.65;;;;;;;;;;5022030;28;20033;-72
2022/08/14 06:41:58;;;;;;;3.30;2.50;;;;;;;;;;5022348;28;20060;-73
2022/08/14 06:44:23;;;;;;;2.80;2.60;;;;;;;;;;5022918;28;20037;-72
2022/08/14 06:46:49;;;;;;;2.90;2.60;;;;;;;;;;5022710;28;20436;-73
2022/08/14 06:49:14;;;;;;;3.00;2.25;;;;;;;;;;5023137;28;20472;-72
2022/08/14 06:51:41;;;;;;;2.90;2.28;;;;;;;;;;5022625;28;20360;-72
2022/08/14 06:54:06;;;;;;;2.58;2.15;;;;;;;;;;5025602;28;20318;-72
2022/08/14 06:56:32;;;;;;;2.00;1.73;;;;;;;;;;5024854;28;20029;-75
2022/08/14 06:58:57;;;;;;;2.00;1.90;;;;;;;;;;5023287;28;20467;-73
2022/08/14 07:06:51;;;;;;;2.00;1.80;;;;;;;;;;5022651;28;20036;-72
2022/08/14 07:09:16;;;;;;;2.05;1.60;;;;;;;;;;5024550;28;20017;-75
2022/08/14 07:11:42;;;;;;;2.05;1.85;;;;;;;;;;5024071;28;20090;-74
2022/08/14 07:14:07;;;;;;;1.98;1.88;;;;;;;;;;5021968;28;20095;-72
2022/08/14 07:16:32;;;;;;;2.85;1.85;;;;;;;;;;5025300;28;20023;-71
2022/08/14 07:18:58;;;;;;;1.58;1.48;;;;;;;;;;5023526;28;20033;-73
2022/08/14 07:21:24;;;;;;;2.00;1.90;;;;;;;;;;5024922;28;20356;-72
2022/08/14 07:23:49;;;;;;;2.03;1.88;;;;;;;;;;5023765;28;20029;-72
2022/08/14 07:26:15;;;;;;;1.60;1.50;;;;;;;;;;5022477;28;20360;-72
2022/08/14 07:28:41;;;;;;;3.05;2.00;;;;;;;;;;5023405;28;20017;-72
2022/08/14 07:31:08;;;;;;;2.35;2.17;;;;;;;;;;5021632;28;20048;-72
2022/08/14 07:33:38;;;;;;;2.63;1.70;;;;;;;;;;5023547;28;20357;-73
2022/08/14 07:36:05;;;;;;;1.92;1.80;;;;;;;;;;5025123;28;20421;-73
2022/08/14 07:38:31;;;;;;;1.75;1.58;;;;;;;;;;5023418;28;20371;-72
2022/08/14 07:40:58;;;;;;;4.80;1.80;;;;;;;;;;5022291;28;20054;-72
2022/08/14 07:43:24;;;;;;;1.85;1.75;;;;;;;;;;5022233;28;20033;-72
2022/08/14 07:45:49;;;;;;;1.92;1.83;;;;;;;;;;5022065;28;20028;-73
2022/08/14 07:48:14;;;;;;;1.20;1.20;;;;;;;;;;5022229;28;20030;-74
2022/08/14 07:50:40;;;;;;;1.42;1.33;;;;;;;;;;5022410;28;20029;-72
2022/08/14 07:53:05;;;;;;;1.42;1.33;;;;;;;;;;5021257;28;20155;-72
2022/08/14 07:55:31;;;;;;;1.70;1.60;;;;;;;;;;5022688;28;20029;-73
2022/08/14 07:57:56;;;;;;;2.20;1.40;;;;;;;;;;5021654;28;20030;-72
2022/08/14 08:00:23;;;;;;;2.03;1.67;;;;;;;;;;5021805;28;20087;-74
2022/08/14 08:02:51;;;;;;;1.60;1.50;;;;;;;;;;5021961;28;20044;-73
2022/08/14 08:05:16;;;;;;;2.67;2.47;;;;;;;;;;5023479;28;20033;-72
2022/08/14 08:07:43;;;;;;;2.35;2.15;;;;;;;;;;5024361;28;20417;-73
2022/08/14 08:10:31;;;;;;;5.22;2.45;;;;;;;;;;5020470;28;20033;-74
2022/08/14 08:13:07;;;;;;;2.08;1.88;;;;;;;;;;5022715;28;20056;-73
2022/08/14 08:15:43;;;;;;;2.00;1.80;;;;;;;;;;5020381;28;20073;-74
2022/08/14 08:18:10;;;;;;;5.65;2.00;;;;;;;;;;5020797;28;20451;-71
2022/08/14 08:20:36;;;;;;;2.95;2.03;;;;;;;;;;5021856;28;20029;-74
2022/08/14 08:23:03;;;;;;;1.98;1.70;;;;;;;;;;5022844;28;20029;-74
2022/08/14 08:25:30;;;;;;;4.57;2.20;;;;;;;;;;5018930;28;20422;-73
2022/08/14 08:28:08;;;;;;;2.33;2.10;;;;;;;;;;5022323;28;20033;-72
2022/08/14 08:30:36;;;;;;;3.40;1.85;;;;;;;;;;5024707;28;20326;-75
2022/08/14 08:33:02;;;;;;;1.88;1.77;;;;;;;;;;5021405;28;20041;-72
2022/08/14 08:35:29;;;;;;;2.40;1.80;;;;;;;;;;5022048;28;20036;-75
2022/08/14 08:38:01;;;;;;;2.33;1.75;;;;;;;;;;5020677;28;20505;-72
2022/08/14 08:40:34;;;;;;;4.70;2.30;;;;;;;;;;5023145;28;20475;-72
2022/08/14 08:43:01;;;;;;;2.28;2.08;;;;;;;;;;5022733;28;20028;-74
2022/08/14 08:45:26;;;;;;;2.33;2.13;;;;;;;;;;5023942;28;20025;-75
2022/08/14 08:47:51;;;;;;;4.93;1.92;;;;;;;;;;5023191;28;20029;-73
2022/08/14 08:50:19;;;;;;;2.10;1.90;;;;;;;;;;5020944;28;20086;-73
2022/08/14 08:52:51;;;;;;;2.63;1.55;;;;;;;;;;5021423;28;20072;-72
2022/08/14 08:55:24;;;;;;;2.63;2.08;;;;;;;;;;5023946;28;20071;-74
2022/08/14 08:58:08;;;;;;;2.63;1.60;;;;;;;;;;5022028;28;20026;-73
2022/08/14 09:00:35;;;;;;;2.00;1.33;;;;;;;;;;5021539;28;20029;-73
2022/08/14 09:03:05;;;;;;;1.77;1.55;;;;;;;;;;5021303;28;20025;-73
2022/08/14 09:05:31;;;;;;;1.88;1.13;;;;;;;;;;5021025;28;20034;-75
2022/08/14 09:08:13;;;;;;;2.03;1.50;;;;;;;;;;5022744;28;20453;-75
2022/08/14 09:10:38;;;;;;;2.83;2.17;;;;;;;;;;5020726;28;20037;-77
2022/08/14 09:13:04;;;;;;;3.33;2.22;;;;;;;;;;5022249;28;20095;-75
2022/08/14 09:15:29;;;;;;;2.28;2.08;;;;;;;;;;5021641;28;20036;-74
2022/08/14 09:17:55;;;;;;;2.15;1.75;;;;;;;;;;5022640;28;20033;-77
2022/08/14 09:20:20;;;;;;;3.03;1.80;;;;;;;;;;5020554;28;20037;-72
2022/08/14 09:22:46;;;;;;;2.30;1.63;;;;;;;;;;5026448;28;20115;-75
2022/08/14 09:25:12;;;;;;;4.35;1.50;;;;;;;;;;5024496;28;20029;-72
2022/08/14 09:27:37;;;;;;;2.42;1.75;;;;;;;;;;5024833;28;20031;-73
2022/08/14 09:30:04;;;;;;;2.28;1.50;;;;;;;;;;5026287;28;20018;-72
2022/08/14 09:32:34;;;;;;;1.58;1.45;;;;;;;;;;5025591;28;20045;-75
2022/08/14 09:34:59;;;;;;;2.00;1.38;;;;;;;;;;5023629;28;20040;-73
2022/08/14 09:37:31;;;;;;;4.20;1.55;;;;;;;;;;5025863;28;20451;-76
2022/08/14 09:40:15;;;;;;;1.80;1.70;;;;;;;;;;5024830;28;20037;-73
2022/08/14 09:42:48;;;;;;;4.35;1.30;;;;;;;;;;5024671;28;20220;-73
2022/08/14 09:45:15;;;;;;;1.10;1.00;;;;;;;;;;5026455;28;20025;-74
2022/08/14 09:47:54;;;;;;;1.25;1.15;;;;;;;;;;5024803;28;20021;-75
2022/08/14 09:50:31;;;;;;;1.77;1.60;;;;;;;;;;5025938;28;20034;-72
2022/08/14 09:52:59;;;;;;;2.88;1.50;;;;;;;;;;5024079;28;20049;-75
2022/08/14 09:55:25;;;;;;;2.13;1.40;;;;;;;;;;5023262;28;20029;-75
2022/08/14 09:57:51;;;;;;;1.70;1.25;;;;;;;;;;5027557;28;20456;-75
2022/08/14 10:00:18;;;;;;;1.50;1.40;;;;;;;;;;5024014;28;20041;-74
2022/08/14 10:02:56;;;;;;;1.35;1.23;;;;;;;;;;5024015;28;20033;-74
2022/08/14 10:05:29;;;;;;;1.00;0.90;;;;;;;;;;5023463;28;20352;-75
2022/08/14 10:07:54;;;;;;;4.72;1.10;;;;;;;;;;5023504;28;20047;-73
2022/08/14 10:10:33;;;;;;;0.95;0.93;;;;;;;;;;5023710;28;20041;-74
2022/08/14 10:13:00;;;;;;;1.17;1.10;;;;;;;;;;5025901;28;20065;-74
2022/08/14 10:15:27;;;;;;;1.13;1.10;;;;;;;;;;5024215;28;20034;-74
2022/08/14 10:18:08;;;;;;;1.20;1.10;;;;;;;;;;5024713;28;20537;-73
2022/08/14 10:20:40;;;;;;;1.30;1.20;;;;;;;;;;5025400;28;20448;-73
2022/08/14 10:23:13;;;;;;;1.25;1.13;;;;;;;;;;5026208;28;20025;-76
2022/08/14 10:25:39;;;;;;;1.70;1.30;;;;;;;;;;5023890;28;20017;-74
2022/08/14 10:28:04;;;;;;;1.33;1.23;;;;;;;;;;5024469;28;20078;-75
2022/08/14 10:30:33;;;;;;;3.17;1.50;;;;;;;;;;5022847;28;20033;-75
2022/08/14 10:32:59;;;;;;;1.40;1.00;;;;;;;;;;5025623;28;20038;-74
2022/08/14 10:35:24;;;;;;;2.30;1.38;;;;;;;;;;5026871;28;20025;-74
2022/08/14 10:37:50;;;;;;;1.40;1.30;;;;;;;;;;5023810;28;20025;-75
2022/08/14 10:40:26;;;;;;;1.38;1.27;;;;;;;;;;5024171;28;20021;-74
2022/08/14 10:42:52;;;;;;;3.03;2.33;;;;;;;;;;5022309;28;20037;-75
2022/08/14 10:45:19;;;;;;;4.72;1.80;;;;;;;;;;5023742;28;20357;-74
2022/08/14 10:47:45;;;;;;;2.70;1.50;;;;;;;;;;5023675;28;20033;-73
2022/08/14 10:50:12;;;;;;;1.23;1.13;;;;;;;;;;5024360;28;20032;-73
2022/08/14 10:52:38;;;;;;;1.45;1.27;;;;;;;;;;5024825;28;20068;-74
2022/08/14 10:55:12;;;;;;;1.02;1.02;;;;;;;;;;5023315;28;20441;-74
2022/08/14 10:57:49;;;;;;;0.93;0.93;;;;;;;;;;5024733;28;20061;-75
2022/08/14 11:00:15;;;;;;;1.85;1.17;;;;;;;;;;5024887;28;20039;-73
2022/08/14 11:02:41;;;;;;;1.02;1.00;;;;;;;;;;5024169;28;20069;-76
2022/08/14 11:05:06;;;;;;;1.10;1.08;;;;;;;;;;5025419;28;20063;-73
2022/08/14 11:07:33;;;;;;;1.65;1.55;;;;;;;;;;5024420;28;20037;-75
2022/08/14 11:10:00;;;;;;;1.50;1.40;;;;;;;;;;5023862;28;20037;-74
2022/08/14 11:12:26;;;;;;;1.40;1.30;;;;;;;;;;5023193;28;20388;-74
2022/08/14 11:14:53;;;;;;;0.90;0.90;;;;;;;;;;5024564;28;20471;-75
2022/08/14 11:17:19;;;;;;;2.17;1.90;;;;;;;;;;5022980;28;20036;-74
2022/08/14 11:19:44;;;;;;;2.83;1.88;;;;;;;;;;5024222;28;20033;-76
2022/08/14 11:22:10;;;;;;;2.28;1.77;;;;;;;;;;5026401;28;20025;-74
2022/08/14 11:24:36;;;;;;;2.00;1.75;;;;;;;;;;5023479;28;20018;-76
2022/08/14 11:27:02;;;;;;;1.55;1.45;;;;;;;;;;5025062;28;20036;-75
2022/08/14 11:29:28;;;;;;;3.58;1.60;;;;;;;;;;5022915;28;20090;-75
2022/08/14 11:31:55;;;;;;;2.05;1.90;;;;;;;;;;5021555;28;20017;-75
2022/08/14 11:34:21;;;;;;;2.25;1.88;;;;;;;;;;5026618;28;20017;-74
2022/08/14 11:36:46;;;;;;;1.63;1.52;;;;;;;;;;5024254;28;20052;-75
2022/08/14 11:39:21;;;;;;;1.42;1.40;;;;;;;;;;5025636;28;20030;-77
2022/08/14 11:41:46;;;;;;;1.33;1.23;;;;;;;;;;5023300;28;20050;-74
2022/08/14 11:44:12;;;;;;;1.10;1.10;;;;;;;;;;5024543;28;20111;-75
2022/08/14 11:46:39;;;;;;;2.05;1.00;;;;;;;;;;5023001;28;20036;-75
2022/08/14 11:49:04;;;;;;;1.10;1.00;;;;;;;;;;5023991;28;20025;-73
2022/08/14 11:51:30;;;;;;;1.48;1.38;;;;;;;;;;5023151;28;20468;-74
2022/08/14 11:54:02;;;;;;;1.88;1.40;;;;;;;;;;5023338;28;20029;-73
2022/08/14 11:56:39;;;;;;;2.17;2.08;;;;;;;;;;5023886;28;20422;-73
2022/08/14 11:59:05;;;;;;;4.13;3.70;;;;;;;;;;5024262;28;20137;-75
2022/08/14 12:01:30;;;;;;;25.67;14.57;;;;;;;;;;5023513;28;20021;-77
2022/08/14 12:04:09;;;;;;;8.18;5.20;;;;;;;;;;5024605;28;20037;-75
2022/08/14 12:06:43;;;;;;;5.65;3.90;;;;;;;;;;5024559;28;20459;-72
2022/08/14 12:09:08;;;;;;;4.55;3.25;;;;;;;;;;5024043;28;20140;-77
2022/08/14 12:11:38;;;;;;;62.67;41.65;;;;;;;;;;5024561;28;20465;-73
2022/08/14 12:14:09;;;;;;;29.20;21.27;;;;;;;;;;5023393;28;20030;-76
2022/08/14 12:16:35;;;;;;;18.13;14.05;;;;;;;;;;5023124;28;20527;-76
2022/08/14 12:19:00;;;;;;;225.60;136.18;;;;;;;;;;5023294;28;20029;-73
2022/08/14 12:21:26;;;;;;;148.60;82.22;;;;;;;;;;5022801;28;20117;-73
2022/08/14 12:24:01;;;;;;;235.40;115.45;;;;;;;;;;5021750;28;20021;-74
2022/08/14 12:26:26;;;;;;;126.93;60.78;;;;;;;;;;5021935;28;20021;-74
2022/08/14 12:29:06;;;;;;;80.38;48.90;;;;;;;;;;5024018;28;20779;-75
2022/08/14 12:31:32;;;;;;;92.18;61.10;;;;;;;;;;5022629;28;20899;-73
2022/08/14 12:34:01;;;;;;;16.08;12.63;;;;;;;;;;5022579;28;20037;-73
2022/08/14 12:36:30;;;;;;;13.63;12.18;;;;;;;;;;5022067;28;20404;-76
2022/08/14 12:38:59;;;;;;;44.88;38.78;;;;;;;;;;5022899;28;20029;-72
2022/08/14 12:41:26;;;;;;;59.15;52.63;;;;;;;;;;5022125;28;20054;-73
2022/08/14 12:43:52;;;;;;;36.75;30.80;;;;;;;;;;5022879;28;20034;-73
2022/08/14 12:46:22;;;;;;;20.20;18.08;;;;;;;;;;5021570;28;20022;-74
2022/08/14 12:48:47;;;;;;;61.05;32.17;;;;;;;;;;5022658;28;20022;-75
2022/08/14 12:51:20;;;;;;;327.20;197.50;;;;;;;;;;5024119;28;20048;-76
2022/08/14 12:53:45;;;;;;;124.72;75.60;;;;;;;;;;5021722;28;20038;-73
2022/08/14 12:56:12;;;;;;;149.60;99.82;;;;;;;;;;5023004;28;20037;-73
2022/08/14 12:58:39;;;;;;;246.55;174.95;;;;;;;;;;5027788;28;20049;-75
2022/08/14 13:01:07;;;;;;;128.55;102.00;;;;;;;;;;5027776;28;20395;-74
2022/08/14 13:03:32;;;;;;;64.70;51.88;;;;;;;;;;5027155;28;20364;-77
2022/08/14 13:05:59;;;;;;;31.33;26.60;;;;;;;;;;5025545;28;20022;-74
2022/08/14 13:08:24;;;;;;;25.60;18.67;;;;;;;;;;5026896;28;20288;-74
2022/08/14 13:10:50;;;;;;;7.78;6.63;;;;;;;;;;5025163;28;20573;-74
2022/08/14 13:13:16;;;;;;;42.33;35.72;;;;;;;;;;5025754;28;20025;-74
2022/08/14 13:15:44;;;;;;;17.00;15.20;;;;;;;;;;5027524;28;20022;-75
2022/08/14 13:18:11;;;;;;;57.40;45.35;;;;;;;;;;5028236;28;20037;-74
2022/08/14 13:20:40;;;;;;;77.15;68.18;;;;;;;;;;5025954;28;20031;-74
2022/08/14 13:23:07;;;;;;;24.08;20.23;;;;;;;;;;5027387;28;20037;-74
2022/08/14 13:25:34;;;;;;;37.17;31.58;;;;;;;;;;5026932;28;20265;-74
2022/08/14 13:27:59;;;;;;;84.22;70.80;;;;;;;;;;5026334;28;20175;-75
2022/08/14 13:30:26;;;;;;;27.60;24.65;;;;;;;;;;5025340;28;20108;-75
2022/08/14 13:32:52;;;;;;;25.85;23.27;;;;;;;;;;5025075;28;20137;-75
2022/08/14 13:35:18;;;;;;;12.57;11.05;;;;;;;;;;5025733;28;20033;-73
2022/08/14 13:37:44;;;;;;;21.27;19.35;;;;;;;;;;5025702;28;20021;-74
2022/08/14 13:40:11;;;;;;;14.23;12.90;;;;;;;;;;5025605;28;20029;-76
2022/08/14 13:42:40;;;;;;;4.75;4.30;;;;;;;;;;5024647;28;20052;-73
2022/08/14 13:45:05;;;;;;;3.03;2.63;;;;;;;;;;5023760;28;20017;-73
2022/08/14 13:47:31;;;;;;;1.38;1.27;;;;;;;;;;5024699;28;20475;-75
2022/08/14 13:50:01;;;;;;;7.53;6.85;;;;;;;;;;5028134;28;20087;-73
2022/08/14 13:52:29;;;;;;;16.35;14.85;;;;;;;;;;5026536;28;20038;-74
2022/08/14 13:54:57;;;;;;;15.50;14.10;;;;;;;;;;5026250;28;20021;-74
2022/08/14 13:57:23;;;;;;;5.15;3.47;;;;;;;;;;5025888;28;20021;-76
2022/08/14 13:59:49;;;;;;;7.50;6.80;;;;;;;;;;5026857;28;20334;-74
2022/08/14 14:02:20;;;;;;;5.47;5.05;;;;;;;;;;5024683;28;20025;-73
2022/08/14 14:04:47;;;;;;;2.83;2.63;;;;;;;;;;5025459;28;20017;-72
2022/08/14 14:07:14;;;;;;;3.50;3.30;;;;;;;;;;5007308;28;20076;-73
2022/08/14 14:09:41;;;;;;;5.53;5.13;;;;;;;;;;5024224;28;20021;-74
2022/08/14 14:12:07;;;;;;;2.35;1.98;;;;;;;;;;5025350;28;20040;-74
2022/08/14 14:14:33;;;;;;;2.08;1.88;;;;;;;;;;5023684;28;20025;-76
2022/08/14 14:16:59;;;;;;;2.75;2.13;;;;;;;;;;5022976;28;20037;-74
2022/08/14 14:19:26;;;;;;;2.70;1.33;;;;;;;;;;5023439;28;20028;-73
2022/08/14 14:21:54;;;;;;;1.80;1.70;;;;;;;;;;5025735;28;20032;-74
2022/08/14 14:24:19;;;;;;;1.92;1.83;;;;;;;;;;5024691;28;20644;-75
2022/08/14 14:26:46;;;;;;;2.17;2.00;;;;;;;;;;5026211;28;20079;-74
2022/08/14 14:29:13;;;;;;;2.15;1.95;;;;;;;;;;5024574;28;20356;-74
2022/08/14 14:31:38;;;;;;;5.32;4.82;;;;;;;;;;5025247;28;20579;-76
2022/08/14 14:34:04;;;;;;;14.27;12.98;;;;;;;;;;5023978;28;20136;-74
2022/08/14 14:36:31;;;;;;;41.17;35.40;;;;;;;;;;5024335;28;20583;-74
2022/08/14 14:39:00;;;;;;;218.00;163.82;;;;;;;;;;5023862;28;20036;-75
2022/08/14 14:41:27;;;;;;;127.15;91.43;;;;;;;;;;5008513;28;21182;-74
2022/08/14 14:43:53;;;;;;;134.25;98.30;;;;;;;;;;5024051;28;20029;-73
2022/08/14 14:46:20;;;;;;;45.08;34.08;;;;;;;;;;5024305;28;20030;-74
2022/08/14 14:48:45;;;;;;;33.33;28.42;;;;;;;;;;5024642;28;20044;-75
2022/08/14 14:51:15;;;;;;;105.20;92.72;;;;;;;;;;5024184;28;20033;-75